Time;durP1;ratioP1;P1;durP2;ratioP2;P2;SDS_P1;SDS_P2;PMS_P1;PMS_P2;Temp;Humidity;BMP_temperature;BMP_pressure;BME280_temperature;BME280_humidity;BME280_pressure;Samples;Min_cycle;Max_cycle;Signal;HPM_P1;HPM_P2
2021/11/30 00:01:30;;;;;;;0.65;0.50;;;;;;;;;;1846211;77;26249;-29
2021/11/30 00:03:58;;;;;;;0.55;0.55;;;;;;;;;;1847278;76;26367;-29
2021/11/30 00:06:26;;;;;;;0.50;0.50;;;;;;;;;;1845641;76;26243;-29
2021/11/30 00:09:08;;;;;;;0.40;0.40;;;;;;;;;;1839869;77;26265;-30
2021/11/30 00:11:23;;;;;;;0.45;0.45;;;;;;;;;;1843270;77;26894;-29
2021/11/30 00:13:50;;;;;;;0.47;0.47;;;;;;;;;;1842556;76;26746;-29
2021/11/30 00:16:17;;;;;;;0.50;0.50;;;;;;;;;;1846071;76;26344;-29
2021/11/30 00:18:45;;;;;;;0.53;0.53;;;;;;;;;;1848058;76;26265;-30
2021/11/30 00:21:12;;;;;;;0.42;0.42;;;;;;;;;;1837284;76;26260;-29
2021/11/30 00:23:39;;;;;;;0.42;0.42;;;;;;;;;;1844974;77;26339;-29
2021/11/30 00:26:07;;;;;;;0.40;0.40;;;;;;;;;;1844282;76;26550;-29
2021/11/30 00:28:35;;;;;;;0.50;0.40;;;;;;;;;;1843008;76;26250;-30
2021/11/30 00:31:02;;;;;;;0.60;0.60;;;;;;;;;;1846292;77;26690;-29
2021/11/30 00:33:29;;;;;;;0.40;0.40;;;;;;;;;;1838777;77;26357;-29
2021/11/30 00:35:57;;;;;;;0.60;0.37;;;;;;;;;;1836217;77;26715;-30
2021/11/30 00:38:26;;;;;;;0.37;0.37;;;;;;;;;;1847394;77;26242;-29
2021/11/30 00:40:53;;;;;;;0.40;0.40;;;;;;;;;;1842164;76;26407;-30
2021/11/30 00:43:22;;;;;;;0.45;0.45;;;;;;;;;;1839969;76;26371;-30
2021/11/30 00:46:09;;;;;;;0.40;0.40;;;;;;;;;;1848026;77;26632;-29
2021/11/30 00:48:31;;;;;;;0.40;0.40;;;;;;;;;;1845492;76;26371;-29
2021/11/30 00:51:00;;;;;;;0.40;0.40;;;;;;;;;;1846143;76;26315;-29
2021/11/30 00:53:27;;;;;;;0.62;0.42;;;;;;;;;;1845151;77;26266;-30
2021/11/30 00:55:55;;;;;;;0.50;0.50;;;;;;;;;;1847682;77;26273;-29
2021/11/30 00:58:22;;;;;;;1.25;0.30;;;;;;;;;;1836013;76;26371;-30
2021/11/30 01:00:50;;;;;;;0.40;0.40;;;;;;;;;;1846668;77;26575;-30
2021/11/30 01:03:17;;;;;;;0.30;0.30;;;;;;;;;;1844455;76;26254;-29
2021/11/30 01:05:44;;;;;;;0.40;0.40;;;;;;;;;;1842706;76;26756;-30
2021/11/30 01:08:12;;;;;;;0.30;0.30;;;;;;;;;;1847097;76;26298;-30
2021/11/30 01:10:39;;;;;;;0.37;0.37;;;;;;;;;;1848421;76;26653;-29
2021/11/30 01:13:06;;;;;;;0.40;0.40;;;;;;;;;;1847422;76;26413;-30
2021/11/30 01:15:34;;;;;;;0.30;0.30;;;;;;;;;;1844189;76;26789;-29
2021/11/30 01:18:01;;;;;;;1.47;0.42;;;;;;;;;;1847186;76;26432;-30
2021/11/30 01:20:28;;;;;;;0.50;0.50;;;;;;;;;;1845677;77;26265;-30
2021/11/30 01:22:56;;;;;;;0.45;0.30;;;;;;;;;;1837006;77;26234;-29
2021/11/30 01:25:24;;;;;;;0.57;0.40;;;;;;;;;;1849740;76;26753;-29
2021/11/30 01:27:51;;;;;;;0.40;0.40;;;;;;;;;;1842625;76;26257;-29
2021/11/30 01:30:20;;;;;;;0.50;0.50;;;;;;;;;;1839637;77;26758;-29
2021/11/30 01:32:47;;;;;;;0.47;0.47;;;;;;;;;;1846242;77;26710;-29
2021/11/30 01:35:15;;;;;;;0.47;0.47;;;;;;;;;;1845409;77;26307;-29
2021/11/30 01:37:43;;;;;;;0.53;0.53;;;;;;;;;;1846458;77;26274;-29
2021/11/30 01:40:12;;;;;;;0.53;0.50;;;;;;;;;;1848064;77;26784;-30
2021/11/30 01:42:44;;;;;;;0.50;0.50;;;;;;;;;;1846966;77;26524;-29
2021/11/30 01:45:11;;;;;;;2.30;0.55;;;;;;;;;;1848247;76;26274;-29
2021/11/30 01:50:09;;;;;;;0.53;0.40;;;;;;;;;;1844897;77;26782;-29
2021/11/30 01:52:38;;;;;;;1.17;0.42;;;;;;;;;;1841395;76;26250;-29
2021/11/30 01:55:06;;;;;;;0.40;0.40;;;;;;;;;;1840833;77;26359;-29
2021/11/30 01:57:33;;;;;;;0.40;0.40;;;;;;;;;;1845532;76;26305;-29
2021/11/30 02:00:01;;;;;;;0.40;0.40;;;;;;;;;;1843361;77;26693;-29
2021/11/30 02:02:28;;;;;;;0.40;0.40;;;;;;;;;;1837045;76;26299;-30
2021/11/30 02:04:55;;;;;;;0.40;0.40;;;;;;;;;;1855038;76;26686;-29
2021/11/30 02:07:23;;;;;;;0.40;0.40;;;;;;;;;;1855305;76;26264;-29
2021/11/30 02:09:50;;;;;;;0.45;0.45;;;;;;;;;;1856246;76;26294;-29
2021/11/30 02:12:17;;;;;;;0.37;0.37;;;;;;;;;;1850306;76;25752;-29
2021/11/30 02:14:46;;;;;;;0.40;0.40;;;;;;;;;;1845800;76;26353;-30
2021/11/30 02:17:15;;;;;;;0.37;0.37;;;;;;;;;;1855037;76;26273;-29
2021/11/30 02:19:49;;;;;;;0.40;0.40;;;;;;;;;;1841829;76;26294;-29
2021/11/30 02:22:16;;;;;;;0.47;0.47;;;;;;;;;;1849569;76;26277;-29
2021/11/30 02:24:43;;;;;;;0.40;0.40;;;;;;;;;;1845704;76;26291;-29
2021/11/30 02:27:11;;;;;;;0.40;0.40;;;;;;;;;;1848391;76;26708;-29
2021/11/30 02:29:38;;;;;;;0.30;0.30;;;;;;;;;;1857052;76;26241;-29
2021/11/30 02:32:06;;;;;;;0.40;0.40;;;;;;;;;;1851949;76;26248;-29
2021/11/30 02:34:34;;;;;;;0.40;0.40;;;;;;;;;;1849960;76;26759;-29
2021/11/30 02:37:11;;;;;;;0.33;0.33;;;;;;;;;;1851004;76;26274;-29
2021/11/30 02:39:34;;;;;;;0.55;0.40;;;;;;;;;;1849754;77;26592;-30
2021/11/30 02:42:03;;;;;;;0.30;0.30;;;;;;;;;;1842007;76;26269;-29
2021/11/30 02:44:31;;;;;;;0.20;0.20;;;;;;;;;;1845578;77;26336;-29
2021/11/30 02:47:00;;;;;;;1.25;0.40;;;;;;;;;;1857401;76;26334;-29
2021/11/30 02:49:29;;;;;;;0.30;0.30;;;;;;;;;;1857004;76;26293;-29
2021/11/30 02:52:08;;;;;;;0.40;0.40;;;;;;;;;;1846013;76;26224;-29
2021/11/30 02:54:26;;;;;;;0.40;0.40;;;;;;;;;;1848367;77;26323;-29
2021/11/30 02:56:55;;;;;;;0.40;0.40;;;;;;;;;;1857215;76;26266;-30
2021/11/30 02:59:23;;;;;;;0.50;0.50;;;;;;;;;;1852586;76;26339;-29
2021/11/30 03:01:58;;;;;;;0.50;0.50;;;;;;;;;;1863916;75;26783;-29
2021/11/30 03:04:25;;;;;;;0.40;0.40;;;;;;;;;;1861234;75;26450;-29
2021/11/30 03:06:54;;;;;;;0.40;0.40;;;;;;;;;;1863672;77;26307;-29
2021/11/30 03:09:22;;;;;;;0.40;0.40;;;;;;;;;;1857707;77;26625;-29
2021/11/30 03:11:50;;;;;;;0.37;0.37;;;;;;;;;;1859956;75;25878;-29
2021/11/30 03:14:18;;;;;;;0.42;0.42;;;;;;;;;;1857465;77;26265;-29
2021/11/30 03:16:46;;;;;;;0.47;0.47;;;;;;;;;;1858921;77;26336;-30
2021/11/30 03:19:15;;;;;;;0.42;0.42;;;;;;;;;;1858110;76;26335;-29
2021/11/30 03:21:42;;;;;;;1.17;0.40;;;;;;;;;;1852298;77;26322;-29
2021/11/30 03:24:10;;;;;;;0.33;0.33;;;;;;;;;;1848708;75;26257;-29
2021/11/30 03:26:37;;;;;;;0.40;0.40;;;;;;;;;;1858447;77;26722;-29
2021/11/30 03:29:05;;;;;;;0.40;0.40;;;;;;;;;;1862706;75;26281;-29
2021/11/30 03:31:35;;;;;;;0.30;0.30;;;;;;;;;;1860194;76;26874;-29
2021/11/30 03:34:02;;;;;;;0.40;0.40;;;;;;;;;;1856381;75;26261;-29
2021/11/30 03:36:30;;;;;;;0.40;0.40;;;;;;;;;;1861650;75;26249;-29
2021/11/30 03:38:58;;;;;;;0.40;0.40;;;;;;;;;;1856115;77;26297;-29
2021/11/30 03:41:28;;;;;;;0.50;0.50;;;;;;;;;;1863147;75;26323;-29
2021/11/30 03:43:54;;;;;;;0.45;0.45;;;;;;;;;;1859169;76;26293;-29
2021/11/30 03:46:22;;;;;;;0.25;0.25;;;;;;;;;;1862867;76;26248;-30
2021/11/30 03:48:49;;;;;;;0.30;0.30;;;;;;;;;;1861383;75;26289;-29
2021/11/30 03:51:17;;;;;;;0.20;0.20;;;;;;;;;;1861752;75;26284;-29
2021/11/30 03:53:44;;;;;;;0.75;0.40;;;;;;;;;;1858897;75;26303;-30
2021/11/30 03:56:12;;;;;;;0.40;0.40;;;;;;;;;;1855965;76;26256;-29
2021/11/30 03:58:39;;;;;;;0.40;0.40;;;;;;;;;;1858322;75;26685;-29
2021/11/30 04:01:07;;;;;;;0.30;0.30;;;;;;;;;;1848794;76;26319;-30
2021/11/30 04:03:34;;;;;;;0.40;0.40;;;;;;;;;;1856246;76;26340;-30
2021/11/30 04:06:03;;;;;;;0.45;0.45;;;;;;;;;;1851481;77;26692;-30
2021/11/30 04:08:31;;;;;;;0.40;0.40;;;;;;;;;;1849172;77;26340;-29
2021/11/30 04:10:58;;;;;;;0.40;0.40;;;;;;;;;;1835557;77;26256;-29
2021/11/30 04:13:26;;;;;;;0.40;0.40;;;;;;;;;;1846212;76;26281;-29
2021/11/30 04:15:53;;;;;;;0.40;0.40;;;;;;;;;;1849083;76;26379;-29
2021/11/30 04:18:20;;;;;;;0.40;0.40;;;;;;;;;;1847656;76;26283;-29
2021/11/30 04:20:47;;;;;;;0.40;0.40;;;;;;;;;;1836142;76;26353;-29
2021/11/30 04:23:15;;;;;;;0.30;0.30;;;;;;;;;;1851407;76;26564;-29
2021/11/30 04:25:42;;;;;;;0.40;0.40;;;;;;;;;;1838562;76;26325;-29
2021/11/30 04:28:09;;;;;;;0.57;0.30;;;;;;;;;;1850339;76;26253;-29
2021/11/30 04:30:37;;;;;;;0.75;0.30;;;;;;;;;;1856871;77;26265;-30
2021/11/30 04:33:04;;;;;;;0.40;0.40;;;;;;;;;;1854140;77;26249;-29
2021/11/30 04:35:32;;;;;;;0.47;0.47;;;;;;;;;;1838776;76;26264;-30
2021/11/30 04:37:59;;;;;;;0.30;0.30;;;;;;;;;;1845092;76;26712;-29
2021/11/30 04:40:26;;;;;;;1.55;0.47;;;;;;;;;;1855502;77;26319;-29
2021/11/30 04:42:54;;;;;;;0.50;0.50;;;;;;;;;;1850252;76;26320;-30
2021/11/30 04:45:26;;;;;;;0.40;0.40;;;;;;;;;;1852987;76;26843;-29
2021/11/30 04:47:53;;;;;;;0.35;0.35;;;;;;;;;;1851666;76;26262;-29
2021/11/30 04:50:25;;;;;;;0.37;0.37;;;;;;;;;;1844525;76;26301;-29
2021/11/30 04:52:49;;;;;;;0.40;0.40;;;;;;;;;;1851217;76;26709;-30
2021/11/30 04:55:30;;;;;;;0.30;0.30;;;;;;;;;;1848858;76;26292;-30
2021/11/30 04:57:57;;;;;;;0.30;0.30;;;;;;;;;;1851286;76;26279;-29
2021/11/30 05:00:25;;;;;;;0.33;0.33;;;;;;;;;;1850671;76;26362;-29
2021/11/30 05:02:53;;;;;;;0.40;0.40;;;;;;;;;;1849486;76;27365;-29
2021/11/30 05:05:20;;;;;;;0.37;0.37;;;;;;;;;;1851272;76;26297;-29
2021/11/30 05:07:47;;;;;;;0.23;0.23;;;;;;;;;;1837670;76;26288;-29
2021/11/30 05:10:18;;;;;;;0.50;0.50;;;;;;;;;;1845541;76;26292;-29
2021/11/30 05:12:45;;;;;;;0.40;0.40;;;;;;;;;;1841492;76;26260;-30
2021/11/30 05:15:12;;;;;;;0.50;0.50;;;;;;;;;;1837312;76;26805;-29
2021/11/30 05:17:41;;;;;;;2.67;0.40;;;;;;;;;;1849806;76;26273;-30
2021/11/30 05:20:09;;;;;;;0.50;0.50;;;;;;;;;;1853670;76;26289;-30
2021/11/30 05:22:37;;;;;;;0.30;0.30;;;;;;;;;;1846954;76;26276;-29
2021/11/30 05:25:06;;;;;;;0.37;0.37;;;;;;;;;;1850117;76;26340;-29
2021/11/30 05:27:39;;;;;;;0.30;0.30;;;;;;;;;;1848211;76;26370;-29
2021/11/30 05:30:02;;;;;;;0.50;0.50;;;;;;;;;;1846425;76;26371;-30
2021/11/30 05:32:30;;;;;;;0.40;0.40;;;;;;;;;;1850896;76;26772;-29
2021/11/30 05:34:57;;;;;;;0.30;0.30;;;;;;;;;;1847912;76;27042;-29
2021/11/30 05:37:24;;;;;;;0.30;0.30;;;;;;;;;;1848949;76;26255;-30
2021/11/30 05:39:51;;;;;;;0.30;0.30;;;;;;;;;;1845140;76;26281;-30
2021/11/30 05:42:19;;;;;;;0.42;0.42;;;;;;;;;;1852123;76;26574;-30
2021/11/30 05:44:46;;;;;;;0.30;0.30;;;;;;;;;;1844413;76;26371;-30
2021/11/30 05:47:13;;;;;;;0.45;0.30;;;;;;;;;;1843469;76;26323;-30
2021/11/30 05:49:41;;;;;;;0.50;0.50;;;;;;;;;;1844510;76;26277;-29
2021/11/30 05:52:08;;;;;;;0.53;0.40;;;;;;;;;;1853347;76;26295;-29
2021/11/30 05:54:36;;;;;;;0.50;0.50;;;;;;;;;;1849462;76;26821;-30
2021/11/30 05:57:12;;;;;;;0.53;0.40;;;;;;;;;;1856278;76;26949;-29
2021/11/30 05:59:38;;;;;;;0.40;0.40;;;;;;;;;;1845121;76;26393;-29
2021/11/30 06:02:05;;;;;;;0.30;0.30;;;;;;;;;;1857317;75;26768;-30
2021/11/30 06:04:33;;;;;;;1.47;0.30;;;;;;;;;;1848145;75;26314;-30
2021/11/30 06:07:00;;;;;;;0.30;0.30;;;;;;;;;;1860226;75;26664;-30
2021/11/30 06:09:27;;;;;;;0.40;0.40;;;;;;;;;;1858106;75;26254;-29
2021/11/30 06:11:56;;;;;;;0.47;0.47;;;;;;;;;;1857852;75;26392;-29
2021/11/30 06:14:24;;;;;;;0.57;0.35;;;;;;;;;;1861544;75;26296;-29
2021/11/30 06:16:51;;;;;;;0.40;0.40;;;;;;;;;;1860026;75;26284;-29
2021/11/30 06:19:20;;;;;;;1.95;0.40;;;;;;;;;;1856956;75;26269;-29
2021/11/30 06:21:49;;;;;;;0.42;0.42;;;;;;;;;;1852519;75;26755;-30
2021/11/30 06:24:17;;;;;;;0.53;0.37;;;;;;;;;;1857393;75;26890;-29
2021/11/30 06:26:45;;;;;;;0.40;0.40;;;;;;;;;;1857876;75;26850;-29
2021/11/30 06:29:12;;;;;;;0.50;0.50;;;;;;;;;;1854593;75;26319;-30
2021/11/30 06:31:39;;;;;;;0.30;0.30;;;;;;;;;;1851705;75;26841;-29
2021/11/30 06:34:06;;;;;;;0.40;0.40;;;;;;;;;;1853957;75;26284;-30
2021/11/30 06:36:34;;;;;;;0.42;0.42;;;;;;;;;;1854609;75;26284;-29
2021/11/30 06:39:01;;;;;;;2.37;0.40;;;;;;;;;;1851898;75;26276;-30
2021/11/30 06:41:28;;;;;;;1.27;0.40;;;;;;;;;;1851979;75;26339;-29
2021/11/30 06:43:56;;;;;;;0.40;0.40;;;;;;;;;;1856359;75;26836;-30
2021/11/30 06:46:23;;;;;;;0.25;0.25;;;;;;;;;;1859149;75;26253;-30
2021/11/30 06:48:50;;;;;;;0.42;0.42;;;;;;;;;;1859314;75;26269;-29
2021/11/30 06:51:19;;;;;;;0.42;0.35;;;;;;;;;;1861026;75;26242;-29
2021/11/30 06:53:46;;;;;;;2.08;0.47;;;;;;;;;;1862428;76;26386;-30
2021/11/30 06:56:13;;;;;;;1.92;0.45;;;;;;;;;;1860296;75;26399;-29
2021/11/30 06:58:41;;;;;;;0.40;0.40;;;;;;;;;;1859038;77;26292;-29
2021/11/30 07:01:10;;;;;;;0.35;0.35;;;;;;;;;;1850585;75;26293;-29
2021/11/30 07:03:37;;;;;;;1.15;0.40;;;;;;;;;;1860160;75;26328;-29
2021/11/30 07:06:24;;;;;;;0.40;0.40;;;;;;;;;;1852479;77;26283;-29
2021/11/30 07:08:51;;;;;;;0.47;0.47;;;;;;;;;;1860499;77;26350;-30
2021/11/30 07:11:22;;;;;;;0.30;0.30;;;;;;;;;;1861040;75;26273;-29
2021/11/30 07:13:48;;;;;;;0.37;0.37;;;;;;;;;;1862262;76;26310;-29
2021/11/30 07:16:15;;;;;;;0.50;0.50;;;;;;;;;;1861407;76;26281;-29
2021/11/30 07:18:43;;;;;;;0.60;0.60;;;;;;;;;;1858668;75;26331;-30
2021/11/30 07:21:10;;;;;;;0.60;0.35;;;;;;;;;;1852396;75;26278;-29
2021/11/30 07:23:38;;;;;;;0.30;0.30;;;;;;;;;;1853207;75;26737;-29
2021/11/30 07:26:05;;;;;;;0.30;0.30;;;;;;;;;;1851377;76;26268;-30
2021/11/30 07:28:33;;;;;;;0.30;0.30;;;;;;;;;;1858810;75;26934;-30
2021/11/30 07:31:04;;;;;;;0.40;0.40;;;;;;;;;;1856281;75;26278;-30
2021/11/30 07:33:33;;;;;;;0.50;0.50;;;;;;;;;;1851982;75;26794;-29
2021/11/30 07:36:02;;;;;;;0.53;0.40;;;;;;;;;;1856445;75;26741;-29
2021/11/30 07:38:29;;;;;;;1.47;0.47;;;;;;;;;;1858271;75;26770;-30
2021/11/30 07:40:57;;;;;;;0.50;0.50;;;;;;;;;;1854086;75;26198;-30
2021/11/30 07:43:24;;;;;;;0.30;0.30;;;;;;;;;;1861410;75;26257;-29
2021/11/30 07:45:52;;;;;;;0.60;0.60;;;;;;;;;;1857188;75;26268;-29
2021/11/30 07:48:21;;;;;;;0.95;0.40;;;;;;;;;;1852332;75;26653;-48
2021/11/30 07:50:49;;;;;;;3.02;0.60;;;;;;;;;;1855683;75;26269;-32
2021/11/30 07:53:17;;;;;;;1.95;0.47;;;;;;;;;;1858352;75;26688;-34
2021/11/30 07:55:44;;;;;;;1.35;0.60;;;;;;;;;;1852992;75;26220;-49
2021/11/30 07:58:12;;;;;;;1.75;0.60;;;;;;;;;;1859034;75;26776;-45
2021/11/30 08:00:39;;;;;;;1.15;0.50;;;;;;;;;;1857374;75;26340;-33
2021/11/30 08:03:06;;;;;;;0.60;0.60;;;;;;;;;;1838993;76;28828;-40
2021/11/30 08:05:34;;;;;;;0.40;0.40;;;;;;;;;;1851307;76;26430;-43
2021/11/30 08:08:02;;;;;;;1.32;0.55;;;;;;;;;;1843911;76;29177;-40
2021/11/30 08:10:30;;;;;;;0.60;0.60;;;;;;;;;;1847343;76;26783;-36
2021/11/30 08:12:57;;;;;;;0.45;0.45;;;;;;;;;;1845441;76;26307;-33
2021/11/30 08:15:25;;;;;;;4.67;0.55;;;;;;;;;;1853546;76;26431;-36
2021/11/30 08:17:52;;;;;;;0.93;0.40;;;;;;;;;;1852462;76;26281;-37
2021/11/30 08:20:19;;;;;;;0.40;0.40;;;;;;;;;;1853692;76;26269;-37
2021/11/30 08:22:47;;;;;;;1.42;0.70;;;;;;;;;;1853217;76;26693;-47
2021/11/30 08:25:14;;;;;;;0.40;0.40;;;;;;;;;;1854137;77;26238;-37
2021/11/30 08:27:42;;;;;;;0.40;0.40;;;;;;;;;;1852062;76;26709;-31
2021/11/30 08:30:10;;;;;;;0.40;0.40;;;;;;;;;;1855826;76;26269;-38
2021/11/30 08:32:38;;;;;;;1.45;0.47;;;;;;;;;;1856239;77;26673;-42
2021/11/30 08:35:06;;;;;;;0.50;0.50;;;;;;;;;;1842207;76;26944;-41
2021/11/30 08:37:33;;;;;;;0.42;0.42;;;;;;;;;;1847514;77;26325;-39
2021/11/30 08:40:02;;;;;;;0.40;0.40;;;;;;;;;;1851724;76;26729;-35
2021/11/30 08:42:29;;;;;;;0.37;0.37;;;;;;;;;;1855522;76;26709;-31
2021/11/30 08:44:57;;;;;;;0.50;0.50;;;;;;;;;;1850293;76;26308;-32
2021/11/30 08:47:25;;;;;;;0.45;0.45;;;;;;;;;;1847709;76;26778;-32
2021/11/30 08:49:53;;;;;;;0.40;0.40;;;;;;;;;;1850154;76;26224;-36
2021/11/30 08:52:25;;;;;;;0.33;0.33;;;;;;;;;;1856537;76;26941;-37
2021/11/30 08:54:52;;;;;;;0.30;0.30;;;;;;;;;;1851557;76;26385;-36
2021/11/30 08:57:19;;;;;;;0.35;0.35;;;;;;;;;;1850368;76;26323;-34
2021/11/30 08:59:46;;;;;;;0.40;0.40;;;;;;;;;;1854456;76;26334;-33
2021/11/30 09:02:15;;;;;;;0.40;0.40;;;;;;;;;;1854636;77;26288;-32
2021/11/30 09:04:43;;;;;;;0.25;0.25;;;;;;;;;;1850285;75;26394;-32
2021/11/30 09:07:10;;;;;;;0.40;0.40;;;;;;;;;;1852239;75;26260;-45
2021/11/30 09:09:38;;;;;;;0.40;0.40;;;;;;;;;;1858359;77;26264;-39
2021/11/30 09:12:06;;;;;;;0.50;0.50;;;;;;;;;;1860068;75;26867;-42
2021/11/30 09:14:33;;;;;;;0.30;0.30;;;;;;;;;;1857070;77;26639;-33
2021/11/30 09:17:01;;;;;;;0.40;0.40;;;;;;;;;;1862035;76;26275;-46
2021/11/30 09:19:28;;;;;;;0.50;0.50;;;;;;;;;;1854656;76;26342;-44
2021/11/30 09:21:56;;;;;;;0.47;0.47;;;;;;;;;;1859537;75;26265;-36
2021/11/30 09:24:23;;;;;;;0.47;0.47;;;;;;;;;;1862689;75;26719;-36
2021/11/30 09:26:52;;;;;;;0.33;0.33;;;;;;;;;;1852744;75;26269;-35
2021/11/30 09:29:19;;;;;;;0.50;0.50;;;;;;;;;;1851575;75;26273;-34
2021/11/30 09:31:47;;;;;;;0.40;0.40;;;;;;;;;;1857203;75;26761;-42
2021/11/30 09:34:14;;;;;;;0.40;0.40;;;;;;;;;;1858117;75;26276;-38
2021/11/30 09:36:43;;;;;;;0.30;0.30;;;;;;;;;;1855388;76;26277;-41
2021/11/30 09:39:11;;;;;;;0.30;0.30;;;;;;;;;;1866607;75;26254;-39
2021/11/30 09:41:38;;;;;;;0.30;0.30;;;;;;;;;;1854504;75;26352;-35
2021/11/30 09:44:06;;;;;;;0.50;0.40;;;;;;;;;;1855669;75;26257;-36
2021/11/30 09:46:33;;;;;;;0.20;0.20;;;;;;;;;;1858297;75;26280;-35
2021/11/30 09:49:01;;;;;;;0.30;0.30;;;;;;;;;;1862002;75;26291;-44
2021/11/30 09:51:29;;;;;;;0.33;0.33;;;;;;;;;;1853361;75;26353;-33
2021/11/30 09:53:57;;;;;;;0.35;0.35;;;;;;;;;;1857110;75;26383;-40
2021/11/30 09:56:24;;;;;;;0.50;0.50;;;;;;;;;;1860749;75;26277;-35
2021/11/30 09:58:52;;;;;;;0.30;0.30;;;;;;;;;;1857926;75;26347;-35
2021/11/30 10:01:20;;;;;;;0.30;0.30;;;;;;;;;;1856727;75;26743;-37
2021/11/30 10:03:48;;;;;;;0.40;0.40;;;;;;;;;;1856862;75;26915;-43
2021/11/30 10:06:15;;;;;;;0.45;0.45;;;;;;;;;;1857728;75;26333;-37
2021/11/30 10:08:44;;;;;;;0.47;0.47;;;;;;;;;;1850794;75;26668;-37
2021/11/30 10:11:13;;;;;;;0.40;0.40;;;;;;;;;;1856787;75;26778;-33
2021/11/30 10:13:40;;;;;;;0.40;0.40;;;;;;;;;;1851430;75;26761;-38
2021/11/30 10:16:09;;;;;;;0.30;0.30;;;;;;;;;;1859049;75;26327;-37
2021/11/30 10:18:38;;;;;;;0.40;0.40;;;;;;;;;;1857649;75;26360;-39
2021/11/30 10:21:22;;;;;;;0.40;0.40;;;;;;;;;;1857916;75;26269;-39
2021/11/30 10:23:59;;;;;;;0.50;0.50;;;;;;;;;;1860596;75;26777;-36
2021/11/30 10:26:27;;;;;;;0.50;0.50;;;;;;;;;;1858820;75;26308;-35
2021/11/30 10:28:56;;;;;;;0.60;0.60;;;;;;;;;;1859057;75;26338;-36
2021/11/30 10:31:28;;;;;;;2.08;0.50;;;;;;;;;;1860110;75;26340;-33
2021/11/30 10:33:53;;;;;;;0.72;0.72;;;;;;;;;;1860026;75;26860;-28
2021/11/30 10:36:20;;;;;;;0.40;0.40;;;;;;;;;;1859214;75;26305;-33
2021/11/30 10:38:48;;;;;;;0.60;0.60;;;;;;;;;;1860117;75;26737;-33
2021/11/30 10:41:19;;;;;;;1.82;0.53;;;;;;;;;;1857156;75;26299;-33
2021/11/30 10:43:54;;;;;;;0.60;0.60;;;;;;;;;;1860141;75;26264;-33
2021/11/30 10:46:23;;;;;;;0.55;0.55;;;;;;;;;;1858592;75;26224;-34
2021/11/30 10:48:51;;;;;;;0.42;0.42;;;;;;;;;;1860715;75;26272;-34
2021/11/30 10:51:18;;;;;;;0.55;0.55;;;;;;;;;;1855857;75;26253;-34
2021/11/30 10:53:47;;;;;;;0.47;0.47;;;;;;;;;;1858346;75;26803;-34
2021/11/30 10:56:15;;;;;;;0.42;0.40;;;;;;;;;;1856763;75;26253;-34
2021/11/30 10:58:44;;;;;;;0.50;0.50;;;;;;;;;;1859411;75;26343;-34
2021/11/30 11:01:13;;;;;;;0.50;0.50;;;;;;;;;;1855634;75;26323;-34
2021/11/30 11:03:40;;;;;;;0.50;0.50;;;;;;;;;;1845783;76;26308;-34
2021/11/30 11:08:59;;;;;;;0.50;0.50;;;;;;;;;;1843392;77;26747;-33
2021/11/30 11:11:28;;;;;;;0.60;0.60;;;;;;;;;;1842849;76;26324;-34
2021/11/30 11:13:57;;;;;;;0.47;0.47;;;;;;;;;;1844157;77;26293;-34
2021/11/30 11:16:32;;;;;;;0.50;0.50;;;;;;;;;;1846100;77;26349;-34
2021/11/30 11:19:00;;;;;;;0.42;0.42;;;;;;;;;;1830816;76;26327;-34
2021/11/30 11:21:32;;;;;;;0.60;0.60;;;;;;;;;;1844623;76;26400;-34
2021/11/30 11:24:04;;;;;;;0.60;0.50;;;;;;;;;;1842596;76;26757;-34
2021/11/30 11:26:33;;;;;;;0.40;0.40;;;;;;;;;;1843341;76;27152;-34
2021/11/30 11:29:02;;;;;;;0.45;0.45;;;;;;;;;;1832608;76;26214;-34
2021/11/30 11:31:30;;;;;;;0.72;0.60;;;;;;;;;;1846712;76;26263;-34
2021/11/30 11:33:58;;;;;;;1.00;0.50;;;;;;;;;;1847873;76;26269;-34
2021/11/30 11:36:26;;;;;;;1.95;0.60;;;;;;;;;;1838007;76;26276;-34
2021/11/30 11:38:54;;;;;;;0.70;0.70;;;;;;;;;;1842337;76;26245;-34
2021/11/30 11:41:21;;;;;;;0.40;0.40;;;;;;;;;;1843562;76;26791;-33
2021/11/30 11:43:48;;;;;;;0.50;0.50;;;;;;;;;;1844992;76;26254;-34
2021/11/30 11:46:16;;;;;;;0.40;0.40;;;;;;;;;;1845481;76;26700;-34
2021/11/30 11:48:45;;;;;;;1.30;0.50;;;;;;;;;;1847760;76;26307;-34
2021/11/30 11:51:13;;;;;;;0.78;0.60;;;;;;;;;;1843875;76;26263;-34
2021/11/30 11:53:42;;;;;;;0.60;0.60;;;;;;;;;;1845366;77;26245;-33
2021/11/30 11:56:10;;;;;;;0.68;0.68;;;;;;;;;;1843253;77;26272;-34
2021/11/30 11:58:43;;;;;;;0.47;0.47;;;;;;;;;;1840440;77;26206;-34
2021/11/30 12:01:09;;;;;;;0.53;0.53;;;;;;;;;;1838184;76;26344;-34
2021/11/30 12:03:53;;;;;;;0.50;0.50;;;;;;;;;;1852366;76;26262;-35
2021/11/30 12:06:22;;;;;;;0.60;0.60;;;;;;;;;;1859964;76;26297;-34
2021/11/30 12:09:09;;;;;;;0.50;0.50;;;;;;;;;;1855464;76;26264;-35
2021/11/30 12:11:37;;;;;;;0.62;0.62;;;;;;;;;;1859691;77;27297;-34
2021/11/30 12:14:11;;;;;;;0.50;0.50;;;;;;;;;;1856328;75;26274;-33
2021/11/30 12:16:57;;;;;;;1.57;0.60;;;;;;;;;;1859811;77;26248;-35
2021/11/30 12:19:26;;;;;;;0.57;0.57;;;;;;;;;;1856748;75;26272;-33
2021/11/30 12:21:53;;;;;;;0.40;0.40;;;;;;;;;;1857475;75;26252;-32
2021/11/30 12:24:37;;;;;;;0.50;0.50;;;;;;;;;;1861342;75;26641;-34
2021/11/30 12:27:18;;;;;;;1.55;0.50;;;;;;;;;;1857683;75;26257;-34
2021/11/30 12:29:46;;;;;;;0.60;0.60;;;;;;;;;;1854593;75;26214;-36
2021/11/30 12:32:25;;;;;;;0.78;0.50;;;;;;;;;;1857019;75;26699;-38
2021/11/30 12:34:54;;;;;;;0.60;0.60;;;;;;;;;;1856738;75;26289;-37
2021/11/30 12:37:26;;;;;;;0.50;0.50;;;;;;;;;;1850745;76;26305;-35
2021/11/30 12:40:11;;;;;;;0.45;0.45;;;;;;;;;;1858163;75;26217;-35
2021/11/30 12:42:40;;;;;;;0.42;0.42;;;;;;;;;;1861002;76;26279;-34
2021/11/30 12:45:09;;;;;;;0.50;0.50;;;;;;;;;;1861805;77;26807;-34
2021/11/30 12:47:37;;;;;;;0.40;0.40;;;;;;;;;;1861176;75;26334;-34
2021/11/30 12:50:23;;;;;;;0.37;0.37;;;;;;;;;;1862762;75;26244;-33
2021/11/30 12:52:54;;;;;;;0.50;0.50;;;;;;;;;;1858380;77;26304;-34
2021/11/30 12:55:21;;;;;;;0.60;0.60;;;;;;;;;;1861115;77;26265;-34
2021/11/30 12:57:49;;;;;;;0.60;0.42;;;;;;;;;;1853753;77;26302;-35
2021/11/30 13:00:26;;;;;;;0.42;0.42;;;;;;;;;;1862148;75;26331;-35
2021/11/30 13:02:54;;;;;;;0.45;0.45;;;;;;;;;;1854125;77;26322;-35
2021/11/30 13:05:24;;;;;;;0.50;0.50;;;;;;;;;;1843938;77;26235;-35
2021/11/30 13:07:57;;;;;;;0.50;0.50;;;;;;;;;;1847324;77;26291;-33
2021/11/30 13:10:26;;;;;;;0.57;0.57;;;;;;;;;;1846728;77;26658;-33
2021/11/30 13:12:58;;;;;;;0.33;0.33;;;;;;;;;;1843138;76;26199;-35
2021/11/30 13:15:26;;;;;;;0.68;0.60;;;;;;;;;;1847138;77;26265;-35
2021/11/30 13:17:55;;;;;;;0.47;0.47;;;;;;;;;;1833591;77;26351;-35
2021/11/30 13:20:27;;;;;;;0.40;0.40;;;;;;;;;;1848099;76;26316;-34
2021/11/30 13:22:56;;;;;;;0.40;0.40;;;;;;;;;;1843212;76;26226;-36
2021/11/30 13:25:25;;;;;;;0.40;0.40;;;;;;;;;;1840664;77;26281;-35
2021/11/30 13:27:54;;;;;;;0.50;0.50;;;;;;;;;;1835024;76;26287;-37
2021/11/30 13:30:23;;;;;;;0.40;0.40;;;;;;;;;;1842615;76;26206;-35
2021/11/30 13:32:52;;;;;;;0.40;0.40;;;;;;;;;;1843724;76;26732;-34
2021/11/30 13:35:24;;;;;;;0.42;0.42;;;;;;;;;;1841953;76;26285;-32
2021/11/30 13:37:57;;;;;;;0.50;0.50;;;;;;;;;;1842178;76;26496;-33
2021/11/30 13:40:44;;;;;;;0.40;0.40;;;;;;;;;;1841976;76;26257;-33
2021/11/30 13:43:13;;;;;;;0.42;0.42;;;;;;;;;;1840961;76;26250;-33
2021/11/30 13:45:46;;;;;;;0.40;0.40;;;;;;;;;;1843000;76;26254;-33
2021/11/30 13:48:14;;;;;;;0.50;0.50;;;;;;;;;;1839119;76;26336;-33
2021/11/30 13:50:42;;;;;;;0.40;0.40;;;;;;;;;;1842993;76;26294;-35
2021/11/30 13:53:14;;;;;;;0.40;0.40;;;;;;;;;;1843587;76;26696;-35
2021/11/30 13:55:44;;;;;;;0.50;0.50;;;;;;;;;;1836476;76;26597;-34
2021/11/30 13:58:20;;;;;;;1.35;0.40;;;;;;;;;;1841693;76;26274;-33
2021/11/30 14:00:57;;;;;;;0.60;0.60;;;;;;;;;;1840606;76;26273;-34
2021/11/30 14:03:16;;;;;;;0.40;0.40;;;;;;;;;;1840417;76;26298;-34
2021/11/30 14:05:43;;;;;;;0.40;0.40;;;;;;;;;;1844600;76;26685;-34
2021/11/30 14:08:10;;;;;;;0.40;0.40;;;;;;;;;;1845695;76;26321;-33
2021/11/30 14:10:39;;;;;;;0.30;0.30;;;;;;;;;;1841923;76;26272;-33
2021/11/30 14:13:07;;;;;;;0.30;0.30;;;;;;;;;;1844947;75;26757;-34
2021/11/30 14:15:34;;;;;;;0.47;0.47;;;;;;;;;;1837628;76;26327;-35
2021/11/30 14:18:03;;;;;;;0.47;0.47;;;;;;;;;;1843475;76;26726;-37
2021/11/30 14:20:31;;;;;;;0.72;0.40;;;;;;;;;;1840442;76;26327;-37
2021/11/30 14:22:59;;;;;;;0.50;0.50;;;;;;;;;;1841270;76;26719;-32
2021/11/30 14:25:27;;;;;;;0.57;0.57;;;;;;;;;;1844438;76;26684;-34
2021/11/30 14:27:59;;;;;;;0.40;0.40;;;;;;;;;;1835115;76;26332;-33
2021/11/30 14:30:28;;;;;;;0.50;0.50;;;;;;;;;;1842605;76;26401;-32
2021/11/30 14:33:01;;;;;;;0.60;0.60;;;;;;;;;;1837154;76;26328;-36
2021/11/30 14:35:29;;;;;;;0.50;0.50;;;;;;;;;;1837505;76;26312;-33
2021/11/30 14:37:57;;;;;;;0.42;0.42;;;;;;;;;;1834849;76;26276;-32
2021/11/30 14:40:25;;;;;;;0.42;0.40;;;;;;;;;;1838922;76;26276;-32
2021/11/30 14:42:54;;;;;;;0.65;0.40;;;;;;;;;;1840474;76;26210;-32
2021/11/30 14:45:23;;;;;;;0.42;0.42;;;;;;;;;;1838811;76;26348;-32
2021/11/30 14:47:52;;;;;;;0.47;0.47;;;;;;;;;;1836406;76;26289;-32
2021/11/30 14:50:21;;;;;;;0.50;0.50;;;;;;;;;;1839920;77;26261;-32
2021/11/30 14:52:50;;;;;;;1.65;0.50;;;;;;;;;;1833459;76;26282;-31
2021/11/30 14:55:18;;;;;;;0.50;0.50;;;;;;;;;;1840765;76;26285;-36
2021/11/30 14:57:46;;;;;;;3.30;0.50;;;;;;;;;;1836892;76;26277;-33